KNK weather

Public forecast

Using degrees Fahrenheit for public forecast. Weather courtesy of forecast.io.

Closest aviation weather report (METAR) to Kokhanok Airport

Closest report is Iliamna Airport, 19.6 nm (36.2 km) N. Retrieved 2020/08/13 15:53 UTC (27 minutes ago):

PAIL 131553Z AUTO 02005KT 10SM CLR 09/09 A2999 RMK AO2 SLP158 T00890089 TSNO

Closest aviation forecast (TAF) to Kokhanok Airport

Closest forecast is Iliamna Airport, 19.6 nm (36.2 km) N. Retrieved 2020/08/13 12:39 UTC (4 hours ago):

TAF PAIL 131136Z 1312/1412 34004KT P6SM SKC FM131400 05004KT P6SM VCFG SCT001 FM131600 09006KT P6SM SCT120